San Francisco, California
Traffic Map
Current Weather Conditions
San Francisco, California
Few Clouds
Few Clouds
53°
Feels Like: 53°
Wind Chill: 53° Ceiling: Unl
Heat Index: 53° Visibility: 10mi
Dew Point: 30° Wind: 10mph
Humidity: 41% Direction: 280° (W)
Pressure: 30.28in Gusts: 0mph
Raw Report DataKSFO 241956Z 28009KT 10SM FEW045 FEW200 12/M01 A3028 RMK AO2 SLP252 T01171011
Traffic Incident Summary
Active as of:
Severity:
Category:
InformationThere was an issue retrieving the traffic information for this location. Please try a different location or try again shortly.
Advertisements
Track Severe Weather on mobile